sensor_id;sensor_type;location;lat;lon;timestamp;P1;durP1;ratioP1;P2;durP2;ratioP2
2698;SDS011;1359;51.798;12.174;2023-04-07T00:00:55;22.23;;;16.73;;
2698;SDS011;1359;51.798;12.174;2023-04-07T00:03:20;19.17;;;15.67;;
2698;SDS011;1359;51.798;12.174;2023-04-07T00:05:46;22.87;;;18.23;;
2698;SDS011;1359;51.798;12.174;2023-04-07T00:08:11;19.50;;;14.60;;
2698;SDS011;1359;51.798;12.174;2023-04-07T00:10:36;19.90;;;15.60;;
2698;SDS011;1359;51.798;12.174;2023-04-07T00:13:02;18.90;;;16.93;;
2698;SDS011;1359;51.798;12.174;2023-04-07T00:15:27;19.07;;;17.07;;
2698;SDS011;1359;51.798;12.174;2023-04-07T00:17:52;19.77;;;16.50;;
2698;SDS011;1359;51.798;12.174;2023-04-07T00:20:18;19.50;;;14.97;;
2698;SDS011;1359;51.798;12.174;2023-04-07T00:22:43;22.97;;;17.63;;
2698;SDS011;1359;51.798;12.174;2023-04-07T00:25:08;19.43;;;15.53;;
2698;SDS011;1359;51.798;12.174;2023-04-07T00:27:34;20.37;;;16.37;;
2698;SDS011;1359;51.798;12.174;2023-04-07T00:29:59;19.73;;;16.73;;
2698;SDS011;1359;51.798;12.174;2023-04-07T00:32:24;23.93;;;17.20;;
2698;SDS011;1359;51.798;12.174;2023-04-07T00:34:50;19.27;;;16.27;;
2698;SDS011;1359;51.798;12.174;2023-04-07T00:37:15;20.27;;;16.47;;
2698;SDS011;1359;51.798;12.174;2023-04-07T00:39:40;19.80;;;16.30;;
2698;SDS011;1359;51.798;12.174;2023-04-07T00:42:06;21.70;;;16.70;;
2698;SDS011;1359;51.798;12.174;2023-04-07T00:44:32;17.43;;;15.27;;
2698;SDS011;1359;51.798;12.174;2023-04-07T00:46:57;19.70;;;17.57;;
2698;SDS011;1359;51.798;12.174;2023-04-07T00:49:23;18.80;;;16.00;;
2698;SDS011;1359;51.798;12.174;2023-04-07T00:51:49;18.70;;;15.33;;
2698;SDS011;1359;51.798;12.174;2023-04-07T00:54:15;24.63;;;17.00;;
2698;SDS011;1359;51.798;12.174;2023-04-07T00:56:41;16.87;;;14.23;;
2698;SDS011;1359;51.798;12.174;2023-04-07T00:59:07;24.57;;;17.60;;
2698;SDS011;1359;51.798;12.174;2023-04-07T01:01:34;20.57;;;16.90;;
2698;SDS011;1359;51.798;12.174;2023-04-07T01:04:04;18.40;;;16.50;;
2698;SDS011;1359;51.798;12.174;2023-04-07T01:06:34;21.83;;;15.70;;
2698;SDS011;1359;51.798;12.174;2023-04-07T01:11:30;23.13;;;17.73;;
2698;SDS011;1359;51.798;12.174;2023-04-07T01:13:57;18.27;;;16.20;;
2698;SDS011;1359;51.798;12.174;2023-04-07T01:16:30;23.93;;;18.67;;
2698;SDS011;1359;51.798;12.174;2023-04-07T01:18:58;19.87;;;16.20;;
2698;SDS011;1359;51.798;12.174;2023-04-07T01:21:25;20.33;;;16.30;;
2698;SDS011;1359;51.798;12.174;2023-04-07T01:26:22;22.07;;;15.97;;
2698;SDS011;1359;51.798;12.174;2023-04-07T01:28:55;19.60;;;17.33;;
2698;SDS011;1359;51.798;12.174;2023-04-07T01:31:21;19.03;;;16.20;;
2698;SDS011;1359;51.798;12.174;2023-04-07T01:33:48;19.93;;;15.80;;
2698;SDS011;1359;51.798;12.174;2023-04-07T01:36:13;18.10;;;16.20;;
2698;SDS011;1359;51.798;12.174;2023-04-07T01:38:40;20.00;;;16.20;;
2698;SDS011;1359;51.798;12.174;2023-04-07T01:41:06;18.37;;;16.47;;
2698;SDS011;1359;51.798;12.174;2023-04-07T01:43:32;20.03;;;16.00;;
2698;SDS011;1359;51.798;12.174;2023-04-07T01:45:58;17.00;;;15.30;;
2698;SDS011;1359;51.798;12.174;2023-04-07T01:48:23;16.10;;;14.40;;
2698;SDS011;1359;51.798;12.174;2023-04-07T01:50:49;17.47;;;15.13;;
2698;SDS011;1359;51.798;12.174;2023-04-07T01:53:15;19.53;;;15.53;;
2698;SDS011;1359;51.798;12.174;2023-04-07T01:55:41;16.70;;;14.33;;
2698;SDS011;1359;51.798;12.174;2023-04-07T01:58:07;26.83;;;16.13;;
2698;SDS011;1359;51.798;12.174;2023-04-07T02:00:35;19.47;;;14.90;;
2698;SDS011;1359;51.798;12.174;2023-04-07T02:03:08;17.90;;;14.10;;
2698;SDS011;1359;51.798;12.174;2023-04-07T02:05:35;20.40;;;15.30;;
2698;SDS011;1359;51.798;12.174;2023-04-07T02:08:04;16.53;;;14.87;;
2698;SDS011;1359;51.798;12.174;2023-04-07T02:10:34;16.97;;;14.37;;
2698;SDS011;1359;51.798;12.174;2023-04-07T02:13:02;20.70;;;17.07;;
2698;SDS011;1359;51.798;12.174;2023-04-07T02:15:28;19.13;;;16.20;;
2698;SDS011;1359;51.798;12.174;2023-04-07T02:17:56;22.53;;;15.87;;
2698;SDS011;1359;51.798;12.174;2023-04-07T02:20:22;19.80;;;15.97;;
2698;SDS011;1359;51.798;12.174;2023-04-07T02:22:48;20.70;;;15.10;;
2698;SDS011;1359;51.798;12.174;2023-04-07T02:27:48;18.10;;;14.93;;
2698;SDS011;1359;51.798;12.174;2023-04-07T02:30:13;20.87;;;15.87;;
2698;SDS011;1359;51.798;12.174;2023-04-07T02:32:39;19.80;;;16.07;;
2698;SDS011;1359;51.798;12.174;2023-04-07T02:35:04;23.70;;;16.70;;
2698;SDS011;1359;51.798;12.174;2023-04-07T02:37:33;19.40;;;14.30;;
2698;SDS011;1359;51.798;12.174;2023-04-07T02:39:59;17.70;;;16.00;;
2698;SDS011;1359;51.798;12.174;2023-04-07T02:42:25;18.80;;;16.40;;
2698;SDS011;1359;51.798;12.174;2023-04-07T02:44:50;21.60;;;16.60;;
2698;SDS011;1359;51.798;12.174;2023-04-07T02:47:16;24.40;;;17.23;;
2698;SDS011;1359;51.798;12.174;2023-04-07T02:49:41;18.93;;;17.03;;
2698;SDS011;1359;51.798;12.174;2023-04-07T02:52:06;20.17;;;16.63;;
2698;SDS011;1359;51.798;12.174;2023-04-07T02:54:32;17.50;;;14.40;;
2698;SDS011;1359;51.798;12.174;2023-04-07T02:56:58;19.77;;;16.07;;
2698;SDS011;1359;51.798;12.174;2023-04-07T02:59:24;21.20;;;16.57;;
2698;SDS011;1359;51.798;12.174;2023-04-07T03:01:49;17.23;;;15.13;;
2698;SDS011;1359;51.798;12.174;2023-04-07T03:04:16;18.43;;;15.03;;
2698;SDS011;1359;51.798;12.174;2023-04-07T03:06:42;24.53;;;16.50;;
2698;SDS011;1359;51.798;12.174;2023-04-07T03:09:13;22.47;;;17.60;;
2698;SDS011;1359;51.798;12.174;2023-04-07T03:11:39;18.23;;;16.23;;
2698;SDS011;1359;51.798;12.174;2023-04-07T03:14:06;25.53;;;17.57;;
2698;SDS011;1359;51.798;12.174;2023-04-07T03:16:34;20.03;;;16.37;;
2698;SDS011;1359;51.798;12.174;2023-04-07T03:19:05;28.10;;;17.00;;
2698;SDS011;1359;51.798;12.174;2023-04-07T03:21:34;18.83;;;16.30;;
2698;SDS011;1359;51.798;12.174;2023-04-07T03:24:00;20.20;;;17.67;;
2698;SDS011;1359;51.798;12.174;2023-04-07T03:26:25;33.23;;;17.57;;
2698;SDS011;1359;51.798;12.174;2023-04-07T03:28:51;22.23;;;17.20;;
2698;SDS011;1359;51.798;12.174;2023-04-07T03:31:18;19.70;;;17.10;;
2698;SDS011;1359;51.798;12.174;2023-04-07T03:33:44;21.13;;;17.07;;
2698;SDS011;1359;51.798;12.174;2023-04-07T03:36:10;25.20;;;17.93;;
2698;SDS011;1359;51.798;12.174;2023-04-07T03:38:35;21.77;;;18.47;;
2698;SDS011;1359;51.798;12.174;2023-04-07T03:41:03;22.33;;;17.87;;
2698;SDS011;1359;51.798;12.174;2023-04-07T03:43:28;23.70;;;17.67;;
2698;SDS011;1359;51.798;12.174;2023-04-07T03:45:53;20.07;;;17.80;;
2698;SDS011;1359;51.798;12.174;2023-04-07T03:48:20;21.53;;;17.83;;
2698;SDS011;1359;51.798;12.174;2023-04-07T03:50:56;21.00;;;17.30;;
2698;SDS011;1359;51.798;12.174;2023-04-07T03:53:21;22.43;;;17.13;;
2698;SDS011;1359;51.798;12.174;2023-04-07T03:55:47;22.63;;;17.50;;
2698;SDS011;1359;51.798;12.174;2023-04-07T03:58:22;26.50;;;18.87;;
2698;SDS011;1359;51.798;12.174;2023-04-07T04:00:48;22.50;;;17.70;;
2698;SDS011;1359;51.798;12.174;2023-04-07T04:03:14;20.70;;;18.40;;
2698;SDS011;1359;51.798;12.174;2023-04-07T04:05:53;27.00;;;19.17;;
2698;SDS011;1359;51.798;12.174;2023-04-07T04:08:25;20.63;;;18.17;;
2698;SDS011;1359;51.798;12.174;2023-04-07T04:10:51;21.73;;;17.20;;
2698;SDS011;1359;51.798;12.174;2023-04-07T04:13:17;24.60;;;19.63;;
2698;SDS011;1359;51.798;12.174;2023-04-07T04:15:42;22.80;;;18.17;;
2698;SDS011;1359;51.798;12.174;2023-04-07T04:18:13;21.70;;;18.57;;
2698;SDS011;1359;51.798;12.174;2023-04-07T04:20:38;22.70;;;17.50;;
2698;SDS011;1359;51.798;12.174;2023-04-07T04:23:04;20.73;;;17.07;;
2698;SDS011;1359;51.798;12.174;2023-04-07T04:25:31;19.30;;;16.97;;
2698;SDS011;1359;51.798;12.174;2023-04-07T04:27:57;20.37;;;17.10;;
2698;SDS011;1359;51.798;12.174;2023-04-07T04:30:24;25.33;;;18.40;;
2698;SDS011;1359;51.798;12.174;2023-04-07T04:32:54;20.40;;;16.97;;
2698;SDS011;1359;51.798;12.174;2023-04-07T04:35:33;27.70;;;16.90;;
2698;SDS011;1359;51.798;12.174;2023-04-07T04:38:05;23.00;;;16.30;;
2698;SDS011;1359;51.798;12.174;2023-04-07T04:40:31;23.17;;;17.43;;
2698;SDS011;1359;51.798;12.174;2023-04-07T04:42:57;22.13;;;17.40;;
2698;SDS011;1359;51.798;12.174;2023-04-07T04:45:23;22.60;;;16.33;;
2698;SDS011;1359;51.798;12.174;2023-04-07T04:47:49;20.73;;;17.37;;
2698;SDS011;1359;51.798;12.174;2023-04-07T04:50:15;24.70;;;17.10;;
2698;SDS011;1359;51.798;12.174;2023-04-07T04:52:42;26.70;;;16.37;;
2698;SDS011;1359;51.798;12.174;2023-04-07T04:55:15;24.43;;;16.73;;
2698;SDS011;1359;51.798;12.174;2023-04-07T04:57:42;20.00;;;14.83;;
2698;SDS011;1359;51.798;12.174;2023-04-07T05:00:10;21.67;;;16.73;;
2698;SDS011;1359;51.798;12.174;2023-04-07T05:02:38;16.80;;;14.23;;
2698;SDS011;1359;51.798;12.174;2023-04-07T05:05:05;19.27;;;17.27;;
2698;SDS011;1359;51.798;12.174;2023-04-07T05:07:31;20.60;;;16.33;;
2698;SDS011;1359;51.798;12.174;2023-04-07T05:09:56;19.10;;;16.40;;
2698;SDS011;1359;51.798;12.174;2023-04-07T05:12:22;21.87;;;16.17;;
2698;SDS011;1359;51.798;12.174;2023-04-07T05:14:55;25.50;;;17.03;;
2698;SDS011;1359;51.798;12.174;2023-04-07T05:17:20;22.40;;;16.10;;
2698;SDS011;1359;51.798;12.174;2023-04-07T05:19:46;20.47;;;15.23;;
2698;SDS011;1359;51.798;12.174;2023-04-07T05:22:20;20.10;;;13.80;;
2698;SDS011;1359;51.798;12.174;2023-04-07T05:24:47;16.43;;;14.53;;
2698;SDS011;1359;51.798;12.174;2023-04-07T05:27:12;17.07;;;14.90;;
2698;SDS011;1359;51.798;12.174;2023-04-07T05:29:38;20.13;;;14.07;;
2698;SDS011;1359;51.798;12.174;2023-04-07T05:32:07;16.50;;;14.43;;
2698;SDS011;1359;51.798;12.174;2023-04-07T05:34:34;24.20;;;15.30;;
2698;SDS011;1359;51.798;12.174;2023-04-07T05:36:59;17.30;;;14.33;;
2698;SDS011;1359;51.798;12.174;2023-04-07T05:39:25;16.63;;;14.10;;
2698;SDS011;1359;51.798;12.174;2023-04-07T05:41:53;18.20;;;15.83;;
2698;SDS011;1359;51.798;12.174;2023-04-07T05:44:23;19.10;;;14.00;;
2698;SDS011;1359;51.798;12.174;2023-04-07T05:46:48;22.57;;;15.77;;
2698;SDS011;1359;51.798;12.174;2023-04-07T05:49:15;18.80;;;15.77;;
2698;SDS011;1359;51.798;12.174;2023-04-07T05:51:40;18.23;;;14.20;;
2698;SDS011;1359;51.798;12.174;2023-04-07T05:54:09;19.60;;;15.30;;
2698;SDS011;1359;51.798;12.174;2023-04-07T05:56:35;19.20;;;15.17;;
2698;SDS011;1359;51.798;12.174;2023-04-07T05:59:00;16.90;;;14.27;;
2698;SDS011;1359;51.798;12.174;2023-04-07T06:01:27;18.00;;;16.10;;
2698;SDS011;1359;51.798;12.174;2023-04-07T06:03:53;20.20;;;14.80;;
2698;SDS011;1359;51.798;12.174;2023-04-07T06:06:21;19.27;;;15.10;;
2698;SDS011;1359;51.798;12.174;2023-04-07T06:08:46;18.30;;;15.20;;
2698;SDS011;1359;51.798;12.174;2023-04-07T06:11:12;16.27;;;13.40;;
2698;SDS011;1359;51.798;12.174;2023-04-07T06:13:37;22.57;;;14.00;;
2698;SDS011;1359;51.798;12.174;2023-04-07T06:16:03;16.63;;;13.83;;
2698;SDS011;1359;51.798;12.174;2023-04-07T06:18:29;18.37;;;15.60;;
2698;SDS011;1359;51.798;12.174;2023-04-07T06:20:54;18.70;;;14.47;;
2698;SDS011;1359;51.798;12.174;2023-04-07T06:23:19;17.13;;;14.20;;
2698;SDS011;1359;51.798;12.174;2023-04-07T06:25:45;17.70;;;14.37;;
2698;SDS011;1359;51.798;12.174;2023-04-07T06:28:10;15.80;;;13.90;;
2698;SDS011;1359;51.798;12.174;2023-04-07T06:30:36;24.73;;;14.17;;
2698;SDS011;1359;51.798;12.174;2023-04-07T06:33:05;19.00;;;14.47;;
2698;SDS011;1359;51.798;12.174;2023-04-07T06:35:31;16.97;;;13.83;;
2698;SDS011;1359;51.798;12.174;2023-04-07T06:37:56;17.63;;;13.20;;
2698;SDS011;1359;51.798;12.174;2023-04-07T06:40:21;19.10;;;15.70;;
2698;SDS011;1359;51.798;12.174;2023-04-07T06:42:47;18.60;;;14.17;;
2698;SDS011;1359;51.798;12.174;2023-04-07T06:45:23;22.90;;;15.80;;
2698;SDS011;1359;51.798;12.174;2023-04-07T06:47:48;17.87;;;15.00;;
2698;SDS011;1359;51.798;12.174;2023-04-07T06:50:13;22.70;;;15.73;;
2698;SDS011;1359;51.798;12.174;2023-04-07T06:52:39;19.43;;;15.00;;
2698;SDS011;1359;51.798;12.174;2023-04-07T06:55:04;21.40;;;14.57;;
2698;SDS011;1359;51.798;12.174;2023-04-07T06:57:31;17.20;;;14.40;;
2698;SDS011;1359;51.798;12.174;2023-04-07T06:59:57;16.37;;;12.70;;
2698;SDS011;1359;51.798;12.174;2023-04-07T07:02:22;16.70;;;13.73;;
2698;SDS011;1359;51.798;12.174;2023-04-07T07:04:49;19.00;;;13.93;;
2698;SDS011;1359;51.798;12.174;2023-04-07T07:07:14;17.37;;;14.57;;
2698;SDS011;1359;51.798;12.174;2023-04-07T07:09:40;15.67;;;11.53;;
2698;SDS011;1359;51.798;12.174;2023-04-07T07:12:05;17.57;;;14.13;;
2698;SDS011;1359;51.798;12.174;2023-04-07T07:14:30;20.40;;;12.90;;
2698;SDS011;1359;51.798;12.174;2023-04-07T07:16:56;23.13;;;13.07;;
2698;SDS011;1359;51.798;12.174;2023-04-07T07:19:21;16.20;;;14.13;;
2698;SDS011;1359;51.798;12.174;2023-04-07T07:21:46;16.30;;;12.17;;
2698;SDS011;1359;51.798;12.174;2023-04-07T07:24:12;17.70;;;14.13;;
2698;SDS011;1359;51.798;12.174;2023-04-07T07:26:37;18.30;;;12.97;;
2698;SDS011;1359;51.798;12.174;2023-04-07T07:29:02;17.40;;;13.60;;
2698;SDS011;1359;51.798;12.174;2023-04-07T07:31:28;14.80;;;12.80;;
2698;SDS011;1359;51.798;12.174;2023-04-07T07:33:53;16.20;;;13.57;;
2698;SDS011;1359;51.798;12.174;2023-04-07T07:36:18;17.73;;;13.53;;
2698;SDS011;1359;51.798;12.174;2023-04-07T07:38:44;18.07;;;13.90;;
2698;SDS011;1359;51.798;12.174;2023-04-07T07:41:09;14.53;;;11.93;;
2698;SDS011;1359;51.798;12.174;2023-04-07T07:43:35;17.80;;;11.40;;
2698;SDS011;1359;51.798;12.174;2023-04-07T07:46:01;14.97;;;11.83;;
2698;SDS011;1359;51.798;12.174;2023-04-07T07:48:26;16.90;;;12.83;;
2698;SDS011;1359;51.798;12.174;2023-04-07T07:50:51;18.80;;;13.10;;
2698;SDS011;1359;51.798;12.174;2023-04-07T07:53:17;18.83;;;14.10;;
2698;SDS011;1359;51.798;12.174;2023-04-07T07:55:42;21.70;;;10.83;;
2698;SDS011;1359;51.798;12.174;2023-04-07T07:58:08;13.63;;;10.60;;
2698;SDS011;1359;51.798;12.174;2023-04-07T08:00:33;14.03;;;9.77;;
2698;SDS011;1359;51.798;12.174;2023-04-07T08:02:58;13.37;;;9.03;;
2698;SDS011;1359;51.798;12.174;2023-04-07T08:05:24;11.87;;;9.90;;
2698;SDS011;1359;51.798;12.174;2023-04-07T08:07:50;14.60;;;11.20;;
2698;SDS011;1359;51.798;12.174;2023-04-07T08:10:15;22.60;;;14.00;;
2698;SDS011;1359;51.798;12.174;2023-04-07T08:12:40;12.53;;;9.17;;
2698;SDS011;1359;51.798;12.174;2023-04-07T08:15:06;19.80;;;11.67;;
2698;SDS011;1359;51.798;12.174;2023-04-07T08:17:34;12.10;;;8.77;;
2698;SDS011;1359;51.798;12.174;2023-04-07T08:19:59;13.67;;;11.23;;
2698;SDS011;1359;51.798;12.174;2023-04-07T08:22:25;13.23;;;9.73;;
2698;SDS011;1359;51.798;12.174;2023-04-07T08:24:50;29.30;;;11.10;;
2698;SDS011;1359;51.798;12.174;2023-04-07T08:27:16;18.50;;;13.23;;
2698;SDS011;1359;51.798;12.174;2023-04-07T08:29:41;12.03;;;10.50;;
2698;SDS011;1359;51.798;12.174;2023-04-07T08:32:06;13.17;;;11.13;;
2698;SDS011;1359;51.798;12.174;2023-04-07T08:34:32;14.30;;;9.33;;
2698;SDS011;1359;51.798;12.174;2023-04-07T08:36:57;13.90;;;9.67;;
2698;SDS011;1359;51.798;12.174;2023-04-07T08:39:22;13.33;;;9.67;;
2698;SDS011;1359;51.798;12.174;2023-04-07T08:41:49;21.27;;;14.57;;
2698;SDS011;1359;51.798;12.174;2023-04-07T08:44:15;19.03;;;14.40;;
2698;SDS011;1359;51.798;12.174;2023-04-07T08:46:41;12.90;;;9.20;;
2698;SDS011;1359;51.798;12.174;2023-04-07T08:49:08;12.90;;;8.30;;
2698;SDS011;1359;51.798;12.174;2023-04-07T08:51:40;11.67;;;9.07;;
2698;SDS011;1359;51.798;12.174;2023-04-07T08:54:09;8.10;;;6.63;;
2698;SDS011;1359;51.798;12.174;2023-04-07T08:56:36;8.70;;;6.30;;
2698;SDS011;1359;51.798;12.174;2023-04-07T08:59:01;7.67;;;6.17;;
2698;SDS011;1359;51.798;12.174;2023-04-07T09:01:29;11.27;;;8.63;;
2698;SDS011;1359;51.798;12.174;2023-04-07T09:03:55;11.67;;;10.00;;
2698;SDS011;1359;51.798;12.174;2023-04-07T09:06:21;10.20;;;8.33;;
2698;SDS011;1359;51.798;12.174;2023-04-07T09:08:46;10.93;;;7.83;;
2698;SDS011;1359;51.798;12.174;2023-04-07T09:11:12;9.00;;;7.83;;
2698;SDS011;1359;51.798;12.174;2023-04-07T09:13:37;7.50;;;6.80;;
2698;SDS011;1359;51.798;12.174;2023-04-07T09:16:02;10.37;;;7.73;;
2698;SDS011;1359;51.798;12.174;2023-04-07T09:18:28;13.10;;;8.53;;
2698;SDS011;1359;51.798;12.174;2023-04-07T09:21:01;11.90;;;8.70;;
2698;SDS011;1359;51.798;12.174;2023-04-07T09:23:27;12.93;;;7.43;;
2698;SDS011;1359;51.798;12.174;2023-04-07T09:25:54;12.43;;;8.60;;
2698;SDS011;1359;51.798;12.174;2023-04-07T09:28:19;9.57;;;7.40;;
2698;SDS011;1359;51.798;12.174;2023-04-07T09:30:51;9.57;;;8.57;;
2698;SDS011;1359;51.798;12.174;2023-04-07T09:33:17;12.07;;;8.00;;
2698;SDS011;1359;51.798;12.174;2023-04-07T09:35:51;10.27;;;8.40;;
2698;SDS011;1359;51.798;12.174;2023-04-07T09:38:17;11.40;;;9.47;;
2698;SDS011;1359;51.798;12.174;2023-04-07T09:40:42;13.60;;;8.70;;
2698;SDS011;1359;51.798;12.174;2023-04-07T09:43:13;9.50;;;8.50;;
2698;SDS011;1359;51.798;12.174;2023-04-07T09:45:39;10.33;;;8.27;;
2698;SDS011;1359;51.798;12.174;2023-04-07T09:48:07;8.73;;;7.30;;
2698;SDS011;1359;51.798;12.174;2023-04-07T09:50:41;12.20;;;9.57;;
2698;SDS011;1359;51.798;12.174;2023-04-07T09:53:09;9.77;;;8.77;;
2698;SDS011;1359;51.798;12.174;2023-04-07T09:55:35;10.13;;;8.90;;
2698;SDS011;1359;51.798;12.174;2023-04-07T09:58:01;8.60;;;7.30;;
2698;SDS011;1359;51.798;12.174;2023-04-07T10:00:27;13.13;;;7.53;;
2698;SDS011;1359;51.798;12.174;2023-04-07T10:02:53;15.50;;;7.80;;
2698;SDS011;1359;51.798;12.174;2023-04-07T10:05:19;11.00;;;8.50;;
2698;SDS011;1359;51.798;12.174;2023-04-07T10:07:47;10.13;;;8.37;;
2698;SDS011;1359;51.798;12.174;2023-04-07T10:10:13;9.77;;;8.43;;
2698;SDS011;1359;51.798;12.174;2023-04-07T10:12:38;10.17;;;8.20;;
2698;SDS011;1359;51.798;12.174;2023-04-07T10:15:05;9.87;;;8.87;;
2698;SDS011;1359;51.798;12.174;2023-04-07T10:17:31;12.57;;;8.73;;
2698;SDS011;1359;51.798;12.174;2023-04-07T10:19:57;10.53;;;9.10;;
2698;SDS011;1359;51.798;12.174;2023-04-07T10:22:26;9.77;;;8.80;;
2698;SDS011;1359;51.798;12.174;2023-04-07T10:27:31;9.83;;;7.30;;
2698;SDS011;1359;51.798;12.174;2023-04-07T10:29:57;8.83;;;7.70;;
2698;SDS011;1359;51.798;12.174;2023-04-07T10:32:24;9.13;;;7.97;;
2698;SDS011;1359;51.798;12.174;2023-04-07T10:37:15;17.20;;;8.90;;
2698;SDS011;1359;51.798;12.174;2023-04-07T10:39:42;11.20;;;8.53;;
2698;SDS011;1359;51.798;12.174;2023-04-07T10:42:07;16.03;;;8.80;;
2698;SDS011;1359;51.798;12.174;2023-04-07T10:44:52;8.80;;;7.83;;
2698;SDS011;1359;51.798;12.174;2023-04-07T10:47:18;11.80;;;8.83;;
2698;SDS011;1359;51.798;12.174;2023-04-07T10:50:13;9.37;;;8.20;;
2698;SDS011;1359;51.798;12.174;2023-04-07T10:52:38;10.70;;;8.50;;
2698;SDS011;1359;51.798;12.174;2023-04-07T10:58:14;9.83;;;8.73;;
2698;SDS011;1359;51.798;12.174;2023-04-07T11:00:39;9.50;;;7.97;;
2698;SDS011;1359;51.798;12.174;2023-04-07T11:03:14;9.23;;;7.50;;
2698;SDS011;1359;51.798;12.174;2023-04-07T11:05:39;9.57;;;8.30;;
2698;SDS011;1359;51.798;12.174;2023-04-07T11:08:05;11.30;;;7.00;;
2698;SDS011;1359;51.798;12.174;2023-04-07T11:10:32;9.60;;;7.90;;
2698;SDS011;1359;51.798;12.174;2023-04-07T11:13:01;8.37;;;7.50;;
2698;SDS011;1359;51.798;12.174;2023-04-07T11:15:27;12.20;;;8.40;;
2698;SDS011;1359;51.798;12.174;2023-04-07T11:18:05;9.67;;;8.40;;
2698;SDS011;1359;51.798;12.174;2023-04-07T11:23:09;10.40;;;7.87;;
2698;SDS011;1359;51.798;12.174;2023-04-07T11:25:34;10.57;;;8.00;;
2698;SDS011;1359;51.798;12.174;2023-04-07T11:28:00;7.00;;;6.30;;
2698;SDS011;1359;51.798;12.174;2023-04-07T11:30:25;10.90;;;8.23;;
2698;SDS011;1359;51.798;12.174;2023-04-07T11:32:50;11.53;;;7.80;;
2698;SDS011;1359;51.798;12.174;2023-04-07T11:35:16;13.03;;;9.20;;
2698;SDS011;1359;51.798;12.174;2023-04-07T11:37:41;10.27;;;8.03;;
2698;SDS011;1359;51.798;12.174;2023-04-07T11:40:07;9.10;;;7.40;;
2698;SDS011;1359;51.798;12.174;2023-04-07T11:42:38;8.80;;;7.90;;
2698;SDS011;1359;51.798;12.174;2023-04-07T11:45:05;9.53;;;8.57;;
2698;SDS011;1359;51.798;12.174;2023-04-07T11:47:37;10.80;;;8.07;;
2698;SDS011;1359;51.798;12.174;2023-04-07T11:50:02;10.23;;;8.47;;
2698;SDS011;1359;51.798;12.174;2023-04-07T11:52:28;17.13;;;9.27;;
2698;SDS011;1359;51.798;12.174;2023-04-07T11:54:53;11.30;;;8.10;;
2698;SDS011;1359;51.798;12.174;2023-04-07T11:57:28;9.97;;;9.00;;
2698;SDS011;1359;51.798;12.174;2023-04-07T12:00:06;10.73;;;8.40;;
2698;SDS011;1359;51.798;12.174;2023-04-07T12:02:32;12.50;;;9.87;;
2698;SDS011;1359;51.798;12.174;2023-04-07T12:04:57;9.90;;;7.80;;
2698;SDS011;1359;51.798;12.174;2023-04-07T12:07:23;10.80;;;9.57;;
2698;SDS011;1359;51.798;12.174;2023-04-07T12:09:48;11.43;;;9.90;;
2698;SDS011;1359;51.798;12.174;2023-04-07T12:12:13;18.20;;;10.37;;
2698;SDS011;1359;51.798;12.174;2023-04-07T12:14:48;11.47;;;10.37;;
2698;SDS011;1359;51.798;12.174;2023-04-07T12:17:21;12.00;;;10.43;;
2698;SDS011;1359;51.798;12.174;2023-04-07T12:19:46;11.30;;;10.13;;
2698;SDS011;1359;51.798;12.174;2023-04-07T12:22:11;10.53;;;8.60;;
2698;SDS011;1359;51.798;12.174;2023-04-07T12:24:37;11.10;;;8.87;;
2698;SDS011;1359;51.798;12.174;2023-04-07T12:27:02;10.77;;;7.93;;
2698;SDS011;1359;51.798;12.174;2023-04-07T12:29:28;13.60;;;8.77;;
2698;SDS011;1359;51.798;12.174;2023-04-07T12:31:54;11.23;;;9.40;;
2698;SDS011;1359;51.798;12.174;2023-04-07T12:34:20;13.47;;;8.33;;
2698;SDS011;1359;51.798;12.174;2023-04-07T12:36:45;16.00;;;8.70;;
2698;SDS011;1359;51.798;12.174;2023-04-07T12:39:11;12.30;;;8.67;;
2698;SDS011;1359;51.798;12.174;2023-04-07T12:41:36;9.13;;;8.23;;
2698;SDS011;1359;51.798;12.174;2023-04-07T12:44:02;8.30;;;7.50;;
2698;SDS011;1359;51.798;12.174;2023-04-07T12:46:28;15.23;;;8.70;;
2698;SDS011;1359;51.798;12.174;2023-04-07T12:48:53;8.87;;;7.47;;
2698;SDS011;1359;51.798;12.174;2023-04-07T12:51:18;12.30;;;8.80;;
2698;SDS011;1359;51.798;12.174;2023-04-07T12:53:44;10.80;;;9.07;;
2698;SDS011;1359;51.798;12.174;2023-04-07T12:56:09;8.47;;;7.50;;
2698;SDS011;1359;51.798;12.174;2023-04-07T12:58:35;8.73;;;7.30;;
2698;SDS011;1359;51.798;12.174;2023-04-07T13:01:00;9.50;;;7.90;;
2698;SDS011;1359;51.798;12.174;2023-04-07T13:03:25;7.77;;;6.90;;
2698;SDS011;1359;51.798;12.174;2023-04-07T13:05:51;9.33;;;7.00;;
2698;SDS011;1359;51.798;12.174;2023-04-07T13:08:19;10.80;;;7.90;;
2698;SDS011;1359;51.798;12.174;2023-04-07T13:10:44;11.30;;;7.80;;
2698;SDS011;1359;51.798;12.174;2023-04-07T13:13:10;9.63;;;7.20;;
2698;SDS011;1359;51.798;12.174;2023-04-07T13:15:35;9.10;;;7.70;;
2698;SDS011;1359;51.798;12.174;2023-04-07T13:18:01;7.37;;;6.07;;
2698;SDS011;1359;51.798;12.174;2023-04-07T13:20:26;9.07;;;7.60;;
2698;SDS011;1359;51.798;12.174;2023-04-07T13:22:52;9.70;;;8.30;;
2698;SDS011;1359;51.798;12.174;2023-04-07T13:25:18;13.93;;;7.27;;
2698;SDS011;1359;51.798;12.174;2023-04-07T13:27:43;15.07;;;7.40;;
2698;SDS011;1359;51.798;12.174;2023-04-07T13:30:08;10.50;;;7.60;;
2698;SDS011;1359;51.798;12.174;2023-04-07T13:32:34;12.60;;;7.87;;
2698;SDS011;1359;51.798;12.174;2023-04-07T13:34:59;10.50;;;8.40;;
2698;SDS011;1359;51.798;12.174;2023-04-07T13:37:25;14.90;;;7.33;;
2698;SDS011;1359;51.798;12.174;2023-04-07T13:39:51;13.90;;;8.37;;
2698;SDS011;1359;51.798;12.174;2023-04-07T13:42:16;13.43;;;9.57;;
2698;SDS011;1359;51.798;12.174;2023-04-07T13:44:41;10.20;;;7.67;;
2698;SDS011;1359;51.798;12.174;2023-04-07T13:47:09;10.10;;;8.23;;
2698;SDS011;1359;51.798;12.174;2023-04-07T13:49:35;8.90;;;7.27;;
2698;SDS011;1359;51.798;12.174;2023-04-07T13:52:00;11.13;;;8.57;;
2698;SDS011;1359;51.798;12.174;2023-04-07T13:54:25;10.40;;;7.33;;
2698;SDS011;1359;51.798;12.174;2023-04-07T13:56:51;8.73;;;7.87;;
2698;SDS011;1359;51.798;12.174;2023-04-07T13:59:16;11.60;;;8.10;;
2698;SDS011;1359;51.798;12.174;2023-04-07T14:01:42;10.57;;;9.47;;
2698;SDS011;1359;51.798;12.174;2023-04-07T14:04:07;10.73;;;7.60;;
2698;SDS011;1359;51.798;12.174;2023-04-07T14:06:32;9.70;;;7.83;;
2698;SDS011;1359;51.798;12.174;2023-04-07T14:08:58;11.10;;;8.27;;
2698;SDS011;1359;51.798;12.174;2023-04-07T14:11:23;11.47;;;8.73;;
2698;SDS011;1359;51.798;12.174;2023-04-07T14:13:49;13.00;;;8.17;;
2698;SDS011;1359;51.798;12.174;2023-04-07T14:16:15;8.10;;;7.30;;
2698;SDS011;1359;51.798;12.174;2023-04-07T14:18:40;9.47;;;7.50;;
2698;SDS011;1359;51.798;12.174;2023-04-07T14:21:06;10.30;;;7.57;;
2698;SDS011;1359;51.798;12.174;2023-04-07T14:23:31;9.03;;;8.13;;
2698;SDS011;1359;51.798;12.174;2023-04-07T14:25:57;9.93;;;7.80;;
2698;SDS011;1359;51.798;12.174;2023-04-07T14:28:22;7.93;;;6.80;;
2698;SDS011;1359;51.798;12.174;2023-04-07T14:30:48;15.67;;;8.73;;
2698;SDS011;1359;51.798;12.174;2023-04-07T14:33:13;10.57;;;6.90;;
2698;SDS011;1359;51.798;12.174;2023-04-07T14:35:41;8.30;;;7.37;;
2698;SDS011;1359;51.798;12.174;2023-04-07T14:38:06;12.97;;;8.40;;
2698;SDS011;1359;51.798;12.174;2023-04-07T14:40:32;8.60;;;7.00;;
2698;SDS011;1359;51.798;12.174;2023-04-07T14:42:57;11.63;;;7.30;;
2698;SDS011;1359;51.798;12.174;2023-04-07T14:45:23;10.60;;;7.10;;
2698;SDS011;1359;51.798;12.174;2023-04-07T14:47:49;7.13;;;6.40;;
2698;SDS011;1359;51.798;12.174;2023-04-07T14:50:14;7.57;;;6.70;;
2698;SDS011;1359;51.798;12.174;2023-04-07T14:52:40;10.17;;;6.27;;
2698;SDS011;1359;51.798;12.174;2023-04-07T14:55:05;7.40;;;6.57;;
2698;SDS011;1359;51.798;12.174;2023-04-07T14:57:31;10.67;;;5.80;;